Brownwood, TX

11:42 AM CST on January 29, 2015 (GMT -0600)
Early | Change Station
CLOSE
Current Station
Personal Weather Station
Location: Early, TX
Elevation: 1407 ft
Nearby Weather Stations

Elev 1407 ft 31.74 °N, 98.94 °W | Updated 3 minutes ago

Clear
Clear
69.3 °F
Feels Like 69.3 °F
N
10.4
Wind Variable Wind from ENE

Today
High -- | Low -- °F
--% Chance of Precip.
Yesterday
High -- | Low -- °F
Precip. -- in
7:30 AM 6:07 PM
Waxing Gibbous, 76% visible
Pressure 30.32 in
Visibility 10.0 miles
Clouds Few 11000 ft
Dew Point 36 °F
Humidity 29%
Rainfall 0.00 in
Snow Depth Not available.
UV 4 out of 12
Pollen 7.50 out of 12
Air Quality Not available.
Flu Activity Not available.
METAR KBWD 291715Z AUTO 04012G19KT 10SM FEW110 19/02 A3032 RMK AO2

More Conditions Fewer Conditions

Pressure 30.32 in
Visibility 10.0 miles
Clouds Few 11000 ft
Dew Point 36 °F
Humidity 29%
Rainfall 0.00 in
Snow Depth Not available.
UV 4 out of 12
Pollen 7.50 out of 12
Air Quality Not available.
Flu Activity Not available.
METAR KBWD 291715Z AUTO 04012G19KT 10SM FEW110 19/02 A3032 RMK AO2

More Conditions Fewer Conditions

10-Day Weather Forecast

Almanac

Astronomy

Jan. 29, 2015 Rise Set
Actual Time
Civil Twilight
Nautical Twilight
Astronomical Twilight
Moon
Length of Visible Light
Length of Day
Tomorrow will be .
, % of the Moon is Illuminated

Today's Extremes

State Highs State Lows

Community

WunderPhotos

Upload Photos

1,791,501 photos uploaded!

WunderBlogs® & News

Nearby

Air Quality

  Air Quality AQ Index Pollutant
Not available.

Snow Depth

Station Depth Elevation

Earthquake Activity

City Distance Mag. Time & Date
Minimum magnitude displayed is 2.5.

Coastal Water Temperatures

Place Temperature

Nearby Weather Stations